sensor_id;sensor_type;location;lat;lon;timestamp;P1;durP1;ratioP1;P2;durP2;ratioP2
37715;SDS011;23562;50.540;12.504;2023-04-19T00:01:23;34.25;;;19.23;;
37715;SDS011;23562;50.540;12.504;2023-04-19T00:03:48;24.42;;;19.00;;
37715;SDS011;23562;50.540;12.504;2023-04-19T00:06:14;25.92;;;18.95;;
37715;SDS011;23562;50.540;12.504;2023-04-19T00:08:40;23.30;;;17.63;;
37715;SDS011;23562;50.540;12.504;2023-04-19T00:11:06;21.10;;;16.52;;
37715;SDS011;23562;50.540;12.504;2023-04-19T00:13:32;100.53;;;19.70;;
37715;SDS011;23562;50.540;12.504;2023-04-19T00:15:57;23.50;;;19.05;;
37715;SDS011;23562;50.540;12.504;2023-04-19T00:18:23;24.65;;;18.10;;
37715;SDS011;23562;50.540;12.504;2023-04-19T00:20:48;64.18;;;20.92;;
37715;SDS011;23562;50.540;12.504;2023-04-19T00:23:13;22.98;;;18.58;;
37715;SDS011;23562;50.540;12.504;2023-04-19T00:25:39;180.50;;;22.77;;
37715;SDS011;23562;50.540;12.504;2023-04-19T00:28:04;32.55;;;19.38;;
37715;SDS011;23562;50.540;12.504;2023-04-19T00:30:29;27.08;;;21.13;;
37715;SDS011;23562;50.540;12.504;2023-04-19T00:32:55;37.95;;;23.58;;
37715;SDS011;23562;50.540;12.504;2023-04-19T00:35:20;547.70;;;30.65;;
37715;SDS011;23562;50.540;12.504;2023-04-19T00:37:45;30.20;;;23.08;;
37715;SDS011;23562;50.540;12.504;2023-04-19T00:40:10;307.95;;;28.50;;
37715;SDS011;23562;50.540;12.504;2023-04-19T00:42:36;42.38;;;26.23;;
37715;SDS011;23562;50.540;12.504;2023-04-19T00:45:01;74.47;;;28.88;;
37715;SDS011;23562;50.540;12.504;2023-04-19T00:47:26;48.95;;;30.13;;
37715;SDS011;23562;50.540;12.504;2023-04-19T00:49:52;43.65;;;30.65;;
37715;SDS011;23562;50.540;12.504;2023-04-19T00:52:17;43.90;;;29.63;;
37715;SDS011;23562;50.540;12.504;2023-04-19T00:54:42;97.03;;;32.10;;
37715;SDS011;23562;50.540;12.504;2023-04-19T00:57:09;68.07;;;35.45;;
37715;SDS011;23562;50.540;12.504;2023-04-19T00:59:34;54.97;;;35.58;;
37715;SDS011;23562;50.540;12.504;2023-04-19T01:02:00;187.32;;;37.45;;
37715;SDS011;23562;50.540;12.504;2023-04-19T01:04:25;60.13;;;35.92;;
37715;SDS011;23562;50.540;12.504;2023-04-19T01:06:51;66.95;;;37.45;;
37715;SDS011;23562;50.540;12.504;2023-04-19T01:09:16;54.08;;;34.55;;
37715;SDS011;23562;50.540;12.504;2023-04-19T01:11:41;168.80;;;36.63;;
37715;SDS011;23562;50.540;12.504;2023-04-19T01:14:07;67.68;;;37.38;;
37715;SDS011;23562;50.540;12.504;2023-04-19T01:16:32;153.77;;;38.53;;
37715;SDS011;23562;50.540;12.504;2023-04-19T01:18:57;59.70;;;37.08;;
37715;SDS011;23562;50.540;12.504;2023-04-19T01:21:23;58.45;;;36.85;;
37715;SDS011;23562;50.540;12.504;2023-04-19T01:23:48;57.08;;;37.92;;
37715;SDS011;23562;50.540;12.504;2023-04-19T01:26:13;60.40;;;37.88;;
37715;SDS011;23562;50.540;12.504;2023-04-19T01:28:38;100.75;;;37.40;;
37715;SDS011;23562;50.540;12.504;2023-04-19T01:31:04;60.15;;;38.15;;
37715;SDS011;23562;50.540;12.504;2023-04-19T01:33:29;55.88;;;36.63;;
37715;SDS011;23562;50.540;12.504;2023-04-19T01:35:54;64.75;;;36.70;;
37715;SDS011;23562;50.540;12.504;2023-04-19T01:38:20;59.35;;;37.28;;
37715;SDS011;23562;50.540;12.504;2023-04-19T01:40:45;60.17;;;36.70;;
37715;SDS011;23562;50.540;12.504;2023-04-19T01:43:15;59.25;;;36.53;;
37715;SDS011;23562;50.540;12.504;2023-04-19T01:45:41;122.10;;;37.65;;
37715;SDS011;23562;50.540;12.504;2023-04-19T01:48:06;82.80;;;36.80;;
37715;SDS011;23562;50.540;12.504;2023-04-19T01:50:32;230.68;;;38.03;;
37715;SDS011;23562;50.540;12.504;2023-04-19T01:52:57;89.35;;;37.97;;
37715;SDS011;23562;50.540;12.504;2023-04-19T01:55:23;55.17;;;34.38;;
37715;SDS011;23562;50.540;12.504;2023-04-19T01:57:48;100.78;;;35.80;;
37715;SDS011;23562;50.540;12.504;2023-04-19T02:00:14;55.47;;;34.47;;
37715;SDS011;23562;50.540;12.504;2023-04-19T02:02:39;88.03;;;35.60;;
37715;SDS011;23562;50.540;12.504;2023-04-19T02:05:05;91.20;;;36.15;;
37715;SDS011;23562;50.540;12.504;2023-04-19T02:07:31;63.75;;;35.30;;
37715;SDS011;23562;50.540;12.504;2023-04-19T02:09:56;53.70;;;34.60;;
37715;SDS011;23562;50.540;12.504;2023-04-19T02:12:23;199.98;;;38.58;;
37715;SDS011;23562;50.540;12.504;2023-04-19T02:14:52;76.65;;;35.55;;
37715;SDS011;23562;50.540;12.504;2023-04-19T02:17:17;51.88;;;34.28;;
37715;SDS011;23562;50.540;12.504;2023-04-19T02:19:42;467.42;;;39.85;;
37715;SDS011;23562;50.540;12.504;2023-04-19T02:22:09;155.52;;;35.50;;
37715;SDS011;23562;50.540;12.504;2023-04-19T02:24:34;431.77;;;39.78;;
37715;SDS011;23562;50.540;12.504;2023-04-19T02:26:59;47.17;;;30.98;;
37715;SDS011;23562;50.540;12.504;2023-04-19T02:29:25;306.85;;;36.13;;
37715;SDS011;23562;50.540;12.504;2023-04-19T02:31:51;70.53;;;32.58;;
37715;SDS011;23562;50.540;12.504;2023-04-19T02:34:16;49.20;;;31.98;;
37715;SDS011;23562;50.540;12.504;2023-04-19T02:36:42;94.95;;;32.08;;
37715;SDS011;23562;50.540;12.504;2023-04-19T02:39:07;57.03;;;32.00;;
37715;SDS011;23562;50.540;12.504;2023-04-19T02:41:33;105.35;;;34.17;;
37715;SDS011;23562;50.540;12.504;2023-04-19T02:43:58;134.95;;;34.33;;
37715;SDS011;23562;50.540;12.504;2023-04-19T02:46:23;167.30;;;35.80;;
37715;SDS011;23562;50.540;12.504;2023-04-19T02:48:48;162.15;;;33.83;;
37715;SDS011;23562;50.540;12.504;2023-04-19T02:51:14;56.25;;;33.42;;
37715;SDS011;23562;50.540;12.504;2023-04-19T02:53:40;343.33;;;38.97;;
37715;SDS011;23562;50.540;12.504;2023-04-19T02:56:06;49.05;;;31.55;;
37715;SDS011;23562;50.540;12.504;2023-04-19T02:58:31;543.65;;;40.65;;
37715;SDS011;23562;50.540;12.504;2023-04-19T03:00:58;715.00;;;47.00;;
37715;SDS011;23562;50.540;12.504;2023-04-19T03:03:27;58.53;;;27.67;;
37715;SDS011;23562;50.540;12.504;2023-04-19T03:05:52;36.08;;;24.70;;
37715;SDS011;23562;50.540;12.504;2023-04-19T03:08:18;33.45;;;23.08;;
37715;SDS011;23562;50.540;12.504;2023-04-19T03:10:43;58.42;;;22.02;;
37715;SDS011;23562;50.540;12.504;2023-04-19T03:13:08;238.85;;;25.33;;
37715;SDS011;23562;50.540;12.504;2023-04-19T03:15:33;147.40;;;19.95;;
37715;SDS011;23562;50.540;12.504;2023-04-19T03:17:59;171.73;;;22.65;;
37715;SDS011;23562;50.540;12.504;2023-04-19T03:20:24;57.58;;;18.73;;
37715;SDS011;23562;50.540;12.504;2023-04-19T03:22:50;737.53;;;34.72;;
37715;SDS011;23562;50.540;12.504;2023-04-19T03:25:16;331.83;;;26.30;;
37715;SDS011;23562;50.540;12.504;2023-04-19T03:27:41;27.25;;;17.75;;
37715;SDS011;23562;50.540;12.504;2023-04-19T03:30:09;22.63;;;16.52;;
37715;SDS011;23562;50.540;12.504;2023-04-19T03:32:35;510.70;;;28.58;;
37715;SDS011;23562;50.540;12.504;2023-04-19T03:35:00;59.75;;;18.58;;
37715;SDS011;23562;50.540;12.504;2023-04-19T03:37:26;362.55;;;25.35;;
37715;SDS011;23562;50.540;12.504;2023-04-19T03:39:51;27.80;;;18.10;;
37715;SDS011;23562;50.540;12.504;2023-04-19T03:42:16;31.63;;;19.38;;
37715;SDS011;23562;50.540;12.504;2023-04-19T03:44:41;27.38;;;18.83;;
37715;SDS011;23562;50.540;12.504;2023-04-19T03:47:07;28.48;;;18.13;;
37715;SDS011;23562;50.540;12.504;2023-04-19T03:49:32;23.88;;;16.55;;
37715;SDS011;23562;50.540;12.504;2023-04-19T03:51:57;23.98;;;16.70;;
37715;SDS011;23562;50.540;12.504;2023-04-19T07:23:07;34.67;;;18.63;;
37715;SDS011;23562;50.540;12.504;2023-04-19T07:53:42;23.60;;;12.27;;
37715;SDS011;23562;50.540;12.504;2023-04-19T09:01:45;13.73;;;6.10;;
37715;SDS011;23562;50.540;12.504;2023-04-19T09:04:10;8.75;;;5.28;;
37715;SDS011;23562;50.540;12.504;2023-04-19T09:06:36;17.88;;;7.07;;
37715;SDS011;23562;50.540;12.504;2023-04-19T09:09:12;10.98;;;5.90;;
37715;SDS011;23562;50.540;12.504;2023-04-19T09:11:42;12.70;;;6.38;;
37715;SDS011;23562;50.540;12.504;2023-04-19T09:14:10;14.68;;;8.10;;
37715;SDS011;23562;50.540;12.504;2023-04-19T09:16:38;11.00;;;6.22;;
37715;SDS011;23562;50.540;12.504;2023-04-19T09:19:04;7.10;;;4.78;;
37715;SDS011;23562;50.540;12.504;2023-04-19T09:21:30;15.32;;;6.43;;
37715;SDS011;23562;50.540;12.504;2023-04-19T09:23:56;12.60;;;5.65;;
37715;SDS011;23562;50.540;12.504;2023-04-19T09:26:22;15.98;;;6.28;;
37715;SDS011;23562;50.540;12.504;2023-04-19T09:29:06;13.18;;;5.78;;
37715;SDS011;23562;50.540;12.504;2023-04-19T09:31:32;12.63;;;5.90;;
37715;SDS011;23562;50.540;12.504;2023-04-19T09:34:15;9.50;;;4.30;;
37715;SDS011;23562;50.540;12.504;2023-04-19T09:36:41;11.85;;;5.18;;
37715;SDS011;23562;50.540;12.504;2023-04-19T09:39:07;11.82;;;6.10;;
37715;SDS011;23562;50.540;12.504;2023-04-19T09:41:33;7.78;;;4.72;;
37715;SDS011;23562;50.540;12.504;2023-04-19T09:44:11;10.35;;;5.45;;
37715;SDS011;23562;50.540;12.504;2023-04-19T09:46:39;15.65;;;5.65;;
37715;SDS011;23562;50.540;12.504;2023-04-19T09:51:43;10.77;;;5.03;;
37715;SDS011;23562;50.540;12.504;2023-04-19T15:13:38;12.23;;;8.90;;
37715;SDS011;23562;50.540;12.504;2023-04-19T15:45:15;9.25;;;6.07;;
37715;SDS011;23562;50.540;12.504;2023-04-19T15:47:40;10.45;;;5.60;;
37715;SDS011;23562;50.540;12.504;2023-04-19T15:50:06;12.05;;;6.38;;
37715;SDS011;23562;50.540;12.504;2023-04-19T15:52:31;13.10;;;6.38;;
37715;SDS011;23562;50.540;12.504;2023-04-19T15:54:57;9.00;;;5.65;;
37715;SDS011;23562;50.540;12.504;2023-04-19T16:14:29;9.65;;;5.88;;
37715;SDS011;23562;50.540;12.504;2023-04-19T17:01:41;11.95;;;7.47;;
37715;SDS011;23562;50.540;12.504;2023-04-19T17:04:06;13.05;;;8.70;;
37715;SDS011;23562;50.540;12.504;2023-04-19T17:06:31;14.43;;;8.82;;
37715;SDS011;23562;50.540;12.504;2023-04-19T17:08:59;12.05;;;7.40;;
37715;SDS011;23562;50.540;12.504;2023-04-19T17:11:29;23.45;;;11.43;;
37715;SDS011;23562;50.540;12.504;2023-04-19T17:13:56;14.90;;;8.05;;
37715;SDS011;23562;50.540;12.504;2023-04-19T17:16:22;11.93;;;6.97;;
37715;SDS011;23562;50.540;12.504;2023-04-19T17:18:47;15.43;;;7.85;;
37715;SDS011;23562;50.540;12.504;2023-04-19T17:21:12;13.85;;;7.88;;
37715;SDS011;23562;50.540;12.504;2023-04-19T17:23:39;15.98;;;9.27;;
37715;SDS011;23562;50.540;12.504;2023-04-19T17:26:05;15.27;;;8.38;;
37715;SDS011;23562;50.540;12.504;2023-04-19T17:28:30;16.00;;;9.25;;
37715;SDS011;23562;50.540;12.504;2023-04-19T17:30:55;14.95;;;7.47;;
37715;SDS011;23562;50.540;12.504;2023-04-19T17:33:21;15.52;;;8.02;;
37715;SDS011;23562;50.540;12.504;2023-04-19T17:35:58;14.40;;;9.40;;
37715;SDS011;23562;50.540;12.504;2023-04-19T17:38:23;13.32;;;8.68;;
37715;SDS011;23562;50.540;12.504;2023-04-19T17:40:48;17.15;;;8.18;;
37715;SDS011;23562;50.540;12.504;2023-04-19T17:43:14;13.02;;;7.43;;
37715;SDS011;23562;50.540;12.504;2023-04-19T17:45:39;12.10;;;7.30;;
37715;SDS011;23562;50.540;12.504;2023-04-19T17:48:04;11.85;;;7.18;;
37715;SDS011;23562;50.540;12.504;2023-04-19T17:50:30;13.00;;;7.20;;
37715;SDS011;23562;50.540;12.504;2023-04-19T17:52:55;22.30;;;11.93;;
37715;SDS011;23562;50.540;12.504;2023-04-19T17:55:20;13.02;;;7.75;;
37715;SDS011;23562;50.540;12.504;2023-04-19T17:57:46;13.65;;;7.65;;
37715;SDS011;23562;50.540;12.504;2023-04-19T18:00:11;9.40;;;6.60;;
37715;SDS011;23562;50.540;12.504;2023-04-19T18:02:37;10.10;;;6.93;;
37715;SDS011;23562;50.540;12.504;2023-04-19T18:05:04;11.15;;;6.88;;
37715;SDS011;23562;50.540;12.504;2023-04-19T18:07:29;14.80;;;9.35;;
37715;SDS011;23562;50.540;12.504;2023-04-19T18:09:54;10.05;;;6.35;;
37715;SDS011;23562;50.540;12.504;2023-04-19T18:12:19;12.82;;;6.70;;
37715;SDS011;23562;50.540;12.504;2023-04-19T18:14:45;10.07;;;6.03;;
37715;SDS011;23562;50.540;12.504;2023-04-19T18:17:10;10.85;;;6.75;;
37715;SDS011;23562;50.540;12.504;2023-04-19T18:19:35;11.43;;;6.82;;
37715;SDS011;23562;50.540;12.504;2023-04-19T18:22:01;37.35;;;14.45;;
37715;SDS011;23562;50.540;12.504;2023-04-19T18:24:27;25.50;;;11.43;;
37715;SDS011;23562;50.540;12.504;2023-04-19T18:26:52;16.90;;;9.32;;
37715;SDS011;23562;50.540;12.504;2023-04-19T18:29:17;20.00;;;11.13;;
37715;SDS011;23562;50.540;12.504;2023-04-19T18:31:44;16.02;;;10.20;;
37715;SDS011;23562;50.540;12.504;2023-04-19T18:34:09;18.08;;;10.48;;
37715;SDS011;23562;50.540;12.504;2023-04-19T18:36:35;20.15;;;11.00;;
37715;SDS011;23562;50.540;12.504;2023-04-19T18:39:00;18.05;;;10.20;;
37715;SDS011;23562;50.540;12.504;2023-04-19T18:41:25;16.95;;;10.35;;
37715;SDS011;23562;50.540;12.504;2023-04-19T18:43:50;16.30;;;10.45;;
37715;SDS011;23562;50.540;12.504;2023-04-19T18:46:18;15.52;;;9.40;;
37715;SDS011;23562;50.540;12.504;2023-04-19T18:48:45;16.80;;;10.13;;
37715;SDS011;23562;50.540;12.504;2023-04-19T18:51:10;15.85;;;9.00;;
37715;SDS011;23562;50.540;12.504;2023-04-19T18:53:36;15.68;;;8.73;;
37715;SDS011;23562;50.540;12.504;2023-04-19T18:56:01;17.45;;;9.95;;
37715;SDS011;23562;50.540;12.504;2023-04-19T18:58:28;15.00;;;9.38;;
37715;SDS011;23562;50.540;12.504;2023-04-19T19:00:54;16.02;;;8.93;;
37715;SDS011;23562;50.540;12.504;2023-04-19T19:03:20;14.88;;;8.85;;
37715;SDS011;23562;50.540;12.504;2023-04-19T19:05:47;12.18;;;8.15;;
37715;SDS011;23562;50.540;12.504;2023-04-19T19:08:12;13.40;;;8.65;;
37715;SDS011;23562;50.540;12.504;2023-04-19T19:10:38;12.07;;;9.00;;
37715;SDS011;23562;50.540;12.504;2023-04-19T19:13:03;15.15;;;10.40;;
37715;SDS011;23562;50.540;12.504;2023-04-19T19:15:28;14.82;;;9.82;;
37715;SDS011;23562;50.540;12.504;2023-04-19T19:17:53;14.07;;;9.25;;
37715;SDS011;23562;50.540;12.504;2023-04-19T19:20:19;12.77;;;9.10;;
37715;SDS011;23562;50.540;12.504;2023-04-19T19:22:44;15.35;;;8.90;;
37715;SDS011;23562;50.540;12.504;2023-04-19T19:25:10;12.93;;;8.90;;
37715;SDS011;23562;50.540;12.504;2023-04-19T19:27:35;15.75;;;9.00;;
37715;SDS011;23562;50.540;12.504;2023-04-19T19:30:01;12.63;;;8.95;;
37715;SDS011;23562;50.540;12.504;2023-04-19T19:32:27;14.10;;;8.85;;
37715;SDS011;23562;50.540;12.504;2023-04-19T19:34:52;14.45;;;8.30;;
37715;SDS011;23562;50.540;12.504;2023-04-19T19:37:18;11.88;;;8.15;;
37715;SDS011;23562;50.540;12.504;2023-04-19T19:39:43;11.75;;;8.30;;
37715;SDS011;23562;50.540;12.504;2023-04-19T19:42:08;13.10;;;8.35;;
37715;SDS011;23562;50.540;12.504;2023-04-19T19:44:35;12.38;;;8.82;;
37715;SDS011;23562;50.540;12.504;2023-04-19T19:47:01;13.38;;;8.43;;
37715;SDS011;23562;50.540;12.504;2023-04-19T19:49:26;15.05;;;9.07;;
37715;SDS011;23562;50.540;12.504;2023-04-19T19:51:51;13.55;;;8.52;;
37715;SDS011;23562;50.540;12.504;2023-04-19T19:56:56;14.68;;;9.13;;
37715;SDS011;23562;50.540;12.504;2023-04-19T19:59:21;20.85;;;10.30;;
37715;SDS011;23562;50.540;12.504;2023-04-19T20:01:47;14.10;;;9.48;;
37715;SDS011;23562;50.540;12.504;2023-04-19T20:04:12;13.48;;;8.50;;
37715;SDS011;23562;50.540;12.504;2023-04-19T20:06:37;13.40;;;8.50;;
37715;SDS011;23562;50.540;12.504;2023-04-19T20:09:02;11.55;;;8.20;;
37715;SDS011;23562;50.540;12.504;2023-04-19T20:11:28;15.98;;;9.55;;
37715;SDS011;23562;50.540;12.504;2023-04-19T20:13:53;15.27;;;9.20;;
37715;SDS011;23562;50.540;12.504;2023-04-19T20:16:33;15.23;;;8.93;;
37715;SDS011;23562;50.540;12.504;2023-04-19T20:18:59;13.07;;;8.90;;
37715;SDS011;23562;50.540;12.504;2023-04-19T20:21:25;14.50;;;8.68;;
37715;SDS011;23562;50.540;12.504;2023-04-19T20:23:50;12.82;;;9.10;;
37715;SDS011;23562;50.540;12.504;2023-04-19T20:26:16;15.48;;;8.95;;
37715;SDS011;23562;50.540;12.504;2023-04-19T20:28:41;14.20;;;8.27;;
37715;SDS011;23562;50.540;12.504;2023-04-19T20:31:07;14.13;;;8.80;;
37715;SDS011;23562;50.540;12.504;2023-04-19T20:33:32;18.27;;;9.90;;
37715;SDS011;23562;50.540;12.504;2023-04-19T20:35:57;17.77;;;9.80;;
37715;SDS011;23562;50.540;12.504;2023-04-19T20:38:24;15.90;;;9.20;;
37715;SDS011;23562;50.540;12.504;2023-04-19T20:40:52;13.52;;;8.82;;
37715;SDS011;23562;50.540;12.504;2023-04-19T20:43:17;16.58;;;8.65;;
37715;SDS011;23562;50.540;12.504;2023-04-19T20:45:43;15.27;;;8.30;;
37715;SDS011;23562;50.540;12.504;2023-04-19T20:48:08;14.88;;;9.98;;
37715;SDS011;23562;50.540;12.504;2023-04-19T20:50:33;19.85;;;10.05;;
37715;SDS011;23562;50.540;12.504;2023-04-19T20:52:59;24.67;;;12.15;;
37715;SDS011;23562;50.540;12.504;2023-04-19T20:55:24;25.85;;;12.45;;
37715;SDS011;23562;50.540;12.504;2023-04-19T20:57:50;24.73;;;12.82;;
37715;SDS011;23562;50.540;12.504;2023-04-19T21:00:15;18.20;;;10.88;;
37715;SDS011;23562;50.540;12.504;2023-04-19T21:02:41;18.75;;;10.27;;
37715;SDS011;23562;50.540;12.504;2023-04-19T21:05:06;15.95;;;10.05;;
37715;SDS011;23562;50.540;12.504;2023-04-19T21:07:32;15.82;;;10.02;;
37715;SDS011;23562;50.540;12.504;2023-04-19T21:09:57;17.48;;;10.18;;
37715;SDS011;23562;50.540;12.504;2023-04-19T21:12:22;17.45;;;9.60;;
37715;SDS011;23562;50.540;12.504;2023-04-19T21:14:48;16.83;;;9.63;;
37715;SDS011;23562;50.540;12.504;2023-04-19T21:17:16;16.85;;;9.98;;
37715;SDS011;23562;50.540;12.504;2023-04-19T21:19:41;19.63;;;9.75;;
37715;SDS011;23562;50.540;12.504;2023-04-19T21:22:06;19.50;;;10.48;;
37715;SDS011;23562;50.540;12.504;2023-04-19T21:24:31;15.27;;;9.55;;
37715;SDS011;23562;50.540;12.504;2023-04-19T21:26:57;15.40;;;9.35;;
37715;SDS011;23562;50.540;12.504;2023-04-19T21:29:22;17.33;;;9.65;;
37715;SDS011;23562;50.540;12.504;2023-04-19T21:31:49;20.63;;;10.02;;
37715;SDS011;23562;50.540;12.504;2023-04-19T21:34:14;19.75;;;10.48;;
37715;SDS011;23562;50.540;12.504;2023-04-19T21:36:39;21.13;;;10.43;;
37715;SDS011;23562;50.540;12.504;2023-04-19T21:39:04;53.38;;;21.80;;
37715;SDS011;23562;50.540;12.504;2023-04-19T21:41:30;40.53;;;16.67;;
37715;SDS011;23562;50.540;12.504;2023-04-19T21:43:55;23.10;;;11.60;;
37715;SDS011;23562;50.540;12.504;2023-04-19T21:46:20;21.40;;;10.02;;
37715;SDS011;23562;50.540;12.504;2023-04-19T21:48:45;21.92;;;10.40;;
37715;SDS011;23562;50.540;12.504;2023-04-19T21:51:11;19.27;;;10.40;;
37715;SDS011;23562;50.540;12.504;2023-04-19T21:53:40;18.20;;;10.38;;
37715;SDS011;23562;50.540;12.504;2023-04-19T21:56:05;20.55;;;10.98;;
37715;SDS011;23562;50.540;12.504;2023-04-19T23:05:50;19.60;;;13.65;;
